Time;durP1;ratioP1;P1;durP2;ratioP2;P2;SDS_P1;SDS_P2;PMS_P1;PMS_P2;Temp;Humidity;BMP_temperature;BMP_pressure;BME280_temperature;BME280_humidity;BME280_pressure;Samples;Min_cycle;Max_cycle;Signal;HPM_P1;HPM_P2
2023/03/29 00:03:44;;;;;;;75.43;31.93;;;-5.30;99.90;;;;;;10206313;29;20229;-84
2023/03/29 00:09:03;;;;;;;65.73;31.30;;;-5.50;99.90;;;;;;10210843;29;20245;-84
2023/03/29 00:14:06;;;;;;;70.07;32.77;;;-5.50;99.90;;;;;;10210860;29;20262;-84
2023/03/29 00:19:09;;;;;;;64.60;31.10;;;-5.60;99.90;;;;;;10212583;29;20238;-84
2023/03/29 00:24:11;;;;;;;62.93;32.37;;;-5.70;99.90;;;;;;10211996;29;20253;-84
2023/03/29 00:29:14;;;;;;;78.20;35.70;;;-5.60;99.90;;;;;;10212199;29;20658;-84
2023/03/29 00:34:17;;;;;;;75.20;36.87;;;-5.60;99.90;;;;;;10212277;29;20316;-84
2023/03/29 00:39:20;;;;;;;75.23;36.77;;;-5.70;99.90;;;;;;10212213;29;20265;-84
2023/03/29 00:44:54;;;;;;;70.67;33.63;;;-5.80;99.90;;;;;;10212606;29;20291;-84
2023/03/29 00:50:01;;;;;;;65.47;33.53;;;-5.90;99.90;;;;;;10210148;29;20275;-84
2023/03/29 00:55:09;;;;;;;71.63;36.53;;;-6.10;99.90;;;;;;10209501;29;20262;-84
2023/03/29 01:00:19;;;;;;;89.13;41.87;;;-6.00;99.90;;;;;;10228265;29;20233;-83
2023/03/29 01:05:31;;;;;;;88.07;42.23;;;-5.90;99.90;;;;;;10208860;29;20241;-84
2023/03/29 01:10:39;;;;;;;95.57;42.50;;;-5.80;99.90;;;;;;10210334;29;20287;-84
2023/03/29 01:15:45;;;;;;;95.80;46.73;;;-5.80;99.90;;;;;;10208701;29;20813;-84
2023/03/29 01:21:14;;;;;;;85.27;43.57;;;-5.80;99.90;;;;;;10208825;29;20239;-84
2023/03/29 01:26:39;;;;;;;73.83;40.40;;;-5.70;99.90;;;;;;10208869;29;20256;-84
2023/03/29 01:31:51;;;;;;;81.63;39.80;;;-5.80;99.90;;;;;;10203782;29;20314;-84
2023/03/29 01:37:03;;;;;;;86.37;41.70;;;-5.90;99.90;;;;;;10207961;29;20268;-84
2023/03/29 01:42:12;;;;;;;81.50;39.47;;;-5.90;99.90;;;;;;10208280;29;20290;-84
2023/03/29 01:47:36;;;;;;;78.47;37.83;;;-6.10;99.90;;;;;;10207364;29;20267;-84
2023/03/29 01:53:04;;;;;;;84.63;39.07;;;-6.10;99.90;;;;;;10209051;29;20304;-84
2023/03/29 01:58:10;;;;;;;68.93;34.50;;;-6.00;99.90;;;;;;10207408;29;20257;-84
2023/03/29 02:03:16;;;;;;;75.13;34.80;;;-5.90;99.90;;;;;;10206627;29;20277;-84
2023/03/29 02:08:21;;;;;;;67.90;34.20;;;-5.90;99.90;;;;;;10200748;29;20280;-84
2023/03/29 02:13:24;;;;;;;64.10;31.43;;;-5.90;99.90;;;;;;10207258;29;20203;-84
2023/03/29 02:18:28;;;;;;;65.30;29.37;;;-5.90;99.90;;;;;;10211617;29;20655;-84
2023/03/29 02:23:44;;;;;;;59.00;30.10;;;-5.80;99.90;;;;;;10207881;29;20233;-84
2023/03/29 02:28:47;;;;;;;59.33;29.40;;;-5.70;99.90;;;;;;10206327;29;20315;-84
2023/03/29 02:34:14;;;;;;;57.33;28.40;;;-5.70;99.90;;;;;;10205846;29;20241;-84
2023/03/29 02:39:18;;;;;;;53.97;27.73;;;-5.70;99.90;;;;;;10190994;29;20260;-84
2023/03/29 02:44:30;;;;;;;54.30;29.53;;;-5.80;99.90;;;;;;10207446;29;20245;-84
2023/03/29 02:49:32;;;;;;;57.40;28.70;;;-5.80;99.90;;;;;;10206157;29;20315;-84
2023/03/29 02:54:41;;;;;;;64.63;30.63;;;-5.90;99.90;;;;;;10205215;29;20300;-84
2023/03/29 02:59:44;;;;;;;59.63;31.57;;;-5.90;99.90;;;;;;10204748;29;20242;-84
2023/03/29 03:04:47;;;;;;;60.07;27.40;;;-6.00;99.90;;;;;;10180613;29;21077;-84
2023/03/29 03:09:50;;;;;;;45.40;25.47;;;-6.00;99.90;;;;;;10221229;29;20245;-84
2023/03/29 03:14:53;;;;;;;50.50;25.87;;;-5.90;99.90;;;;;;10204905;29;20342;-84
2023/03/29 03:19:56;;;;;;;51.77;25.13;;;-5.90;99.90;;;;;;10204762;29;20282;-84
2023/03/29 03:24:58;;;;;;;43.37;23.03;;;-5.80;99.90;;;;;;10203953;29;20240;-84
2023/03/29 03:30:04;;;;;;;46.37;23.47;;;-5.70;99.90;;;;;;10205176;29;20250;-84
2023/03/29 03:35:25;;;;;;;53.93;25.37;;;-5.70;99.90;;;;;;10205985;29;20267;-84
2023/03/29 03:40:27;;;;;;;47.57;22.83;;;-5.70;99.90;;;;;;10208030;29;20292;-84
2023/03/29 03:45:30;;;;;;;42.90;22.53;;;-5.70;99.90;;;;;;10212239;29;20308;-84
2023/03/29 03:50:48;;;;;;;38.97;20.40;;;-5.70;99.90;;;;;;10211524;29;20229;-84
2023/03/29 03:55:54;;;;;;;41.57;21.87;;;-5.70;99.90;;;;;;10211068;29;20312;-84
2023/03/29 04:01:01;;;;;;;40.27;20.30;;;-5.80;99.90;;;;;;10210706;29;20237;-83
2023/03/29 04:06:21;;;;;;;42.93;22.10;;;-5.90;99.90;;;;;;10211352;29;20258;-83
2023/03/29 04:11:58;;;;;;;44.87;22.63;;;-5.70;99.90;;;;;;10197701;29;21074;-84
2023/03/29 04:17:01;;;;;;;40.70;21.70;;;-5.60;99.90;;;;;;10210080;29;20269;-84
2023/03/29 04:22:22;;;;;;;40.33;22.27;;;-5.70;99.90;;;;;;10234828;29;20289;-84
2023/03/29 04:27:25;;;;;;;35.57;20.43;;;-5.60;99.90;;;;;;10173124;29;20266;-84
2023/03/29 04:32:28;;;;;;;35.07;20.43;;;-5.60;99.90;;;;;;10222671;28;20308;-84
2023/03/29 04:37:39;;;;;;;36.40;18.90;;;-5.50;99.90;;;;;;10210267;29;20681;-84
2023/03/29 04:42:44;;;;;;;39.83;20.37;;;-5.40;99.90;;;;;;10210282;29;20233;-85
2023/03/29 04:47:47;;;;;;;35.83;18.80;;;-5.30;99.90;;;;;;10211875;29;20332;-84
2023/03/29 04:52:52;;;;;;;34.60;18.73;;;-5.10;99.90;;;;;;10208726;29;20238;-85
2023/03/29 04:57:57;;;;;;;39.13;19.83;;;-5.10;99.90;;;;;;10224946;29;20317;-85
2023/03/29 05:03:06;;;;;;;44.53;21.27;;;-5.10;99.90;;;;;;10199638;29;20274;-84
2023/03/29 05:08:13;;;;;;;45.57;21.67;;;-4.90;99.90;;;;;;10199218;29;20231;-86
2023/03/29 05:13:36;;;;;;;51.10;23.17;;;-4.80;99.90;;;;;;10210265;29;20919;-83
2023/03/29 05:18:39;;;;;;;44.23;22.60;;;-4.60;99.90;;;;;;10210343;29;20330;-83
2023/03/29 05:23:42;;;;;;;31.57;13.53;;;-4.50;99.90;;;;;;10212057;29;20290;-81
2023/03/29 05:28:51;;;;;;;45.90;22.57;;;-3.70;99.90;;;;;;10211991;28;20309;-83
2023/03/29 05:33:54;;;;;;;55.10;25.57;;;-3.40;99.90;;;;;;10192989;29;20234;-84
2023/03/29 05:38:58;;;;;;;44.57;21.40;;;-3.50;99.90;;;;;;10207787;29;20709;-85
2023/03/29 05:44:02;;;;;;;42.43;19.67;;;-3.60;99.90;;;;;;10206189;29;20301;-83
2023/03/29 05:49:06;;;;;;;36.77;20.63;;;-3.50;99.90;;;;;;10205261;29;20242;-83
2023/03/29 05:54:27;;;;;;;44.40;19.73;;;-3.30;99.90;;;;;;10195357;29;20282;-86
2023/03/29 05:59:32;;;;;;;40.23;20.43;;;-2.50;99.90;;;;;;10168741;29;20275;-86
2023/03/29 06:04:36;;;;;;;50.10;26.57;;;-2.30;99.90;;;;;;10168186;29;20264;-86
2023/03/29 06:09:54;;;;;;;53.30;26.83;;;-2.20;99.90;;;;;;10169793;29;20290;-86
2023/03/29 06:15:02;;;;;;;41.23;20.40;;;-2.00;99.90;;;;;;10198237;29;20782;-85
2023/03/29 06:20:31;;;;;;;41.70;19.87;;;-1.60;99.90;;;;;;10204778;29;20231;-85
2023/03/29 06:25:41;;;;;;;41.90;20.33;;;-1.30;99.90;;;;;;10205921;29;20246;-85
2023/03/29 06:30:45;;;;;;;42.20;21.37;;;-0.90;99.90;;;;;;10206028;29;20246;-85
2023/03/29 06:35:49;;;;;;;41.27;22.43;;;-0.50;99.90;;;;;;10205025;29;20705;-84
2023/03/29 06:41:02;;;;;;;47.93;24.83;;;0.00;99.90;;;;;;10205138;29;20231;-84
2023/03/29 06:46:22;;;;;;;46.30;24.10;;;0.40;99.90;;;;;;10203766;29;20242;-83
2023/03/29 06:51:30;;;;;;;50.60;24.80;;;0.70;99.90;;;;;;10200073;29;20254;-84
2023/03/29 06:56:33;;;;;;;46.27;22.63;;;1.00;99.90;;;;;;10196396;29;20685;-83
2023/03/29 07:01:38;;;;;;;32.27;17.30;;;1.20;99.90;;;;;;10201291;29;20295;-85
2023/03/29 07:07:00;;;;;;;30.80;16.53;;;1.40;99.90;;;;;;10201932;29;20211;-86
2023/03/29 07:12:06;;;;;;;27.70;15.33;;;1.60;99.90;;;;;;10197220;29;20302;-84
2023/03/29 07:17:09;;;;;;;29.83;13.57;;;1.80;99.90;;;;;;10204634;29;20324;-84
2023/03/29 07:22:15;;;;;;;26.10;13.57;;;1.70;99.20;;;;;;10205436;29;20203;-84
2023/03/29 07:27:23;;;;;;;22.60;13.07;;;1.80;99.80;;;;;;10200751;29;20250;-84
2023/03/29 07:32:26;;;;;;;20.90;13.13;;;2.00;99.00;;;;;;10203803;29;20321;-83
2023/03/29 07:37:45;;;;;;;22.17;13.50;;;2.30;98.10;;;;;;10203665;29;20344;-83
2023/03/29 07:42:52;;;;;;;21.87;13.47;;;2.50;97.70;;;;;;10205449;29;20271;-83
2023/03/29 07:47:58;;;;;;;18.60;10.87;;;2.90;96.50;;;;;;10208402;29;20253;-83
2023/03/29 07:53:07;;;;;;;16.40;10.10;;;3.30;97.20;;;;;;10204979;29;20609;-83
2023/03/29 07:58:10;;;;;;;24.43;10.93;;;3.60;96.40;;;;;;10202666;29;20321;-83
2023/03/29 08:03:14;;;;;;;15.20;9.63;;;3.90;93.70;;;;;;10186440;29;20244;-83
2023/03/29 08:08:17;;;;;;;22.50;11.97;;;4.10;92.70;;;;;;10201290;29;20305;-84
2023/03/29 08:13:31;;;;;;;25.17;11.17;;;4.30;93.50;;;;;;10184027;29;20266;-84
2023/03/29 08:18:56;;;;;;;25.80;12.90;;;4.60;92.10;;;;;;10171097;29;20250;-83
2023/03/29 08:24:05;;;;;;;17.33;9.10;;;4.80;91.60;;;;;;10186850;29;20999;-83
2023/03/29 08:29:22;;;;;;;17.20;8.53;;;5.20;90.90;;;;;;10201614;29;20270;-84
2023/03/29 08:34:24;;;;;;;17.73;9.60;;;5.60;88.80;;;;;;10170801;29;20294;-84
2023/03/29 08:39:42;;;;;;;16.90;8.50;;;5.80;88.40;;;;;;10157170;29;20322;-85
2023/03/29 08:45:28;;;;;;;17.23;9.70;;;6.00;84.70;;;;;;10149486;29;20239;-85
2023/03/29 08:50:46;;;;;;;18.23;7.93;;;6.20;85.60;;;;;;10170198;29;20239;-85
2023/03/29 08:55:51;;;;;;;14.40;7.87;;;6.60;78.00;;;;;;10170267;29;20262;-85
2023/03/29 09:01:10;;;;;;;12.50;8.07;;;6.90;74.10;;;;;;10170427;29;20338;-85
2023/03/29 09:06:26;;;;;;;13.57;7.37;;;7.00;77.60;;;;;;10170225;29;20298;-85
2023/03/29 09:11:58;;;;;;;13.77;7.50;;;7.40;70.70;;;;;;10169592;29;20263;-85
2023/03/29 09:17:01;;;;;;;13.00;6.67;;;7.70;66.20;;;;;;10160720;29;20267;-85
2023/03/29 09:22:04;;;;;;;14.17;6.13;;;7.80;61.10;;;;;;10169543;29;20777;-85
2023/03/29 09:27:26;;;;;;;10.10;6.57;;;7.90;55.50;;;;;;10169416;29;20244;-85
2023/03/29 09:33:07;;;;;;;8.73;5.33;;;8.10;56.10;;;;;;10183071;29;20254;-85
2023/03/29 09:38:28;;;;;;;10.33;6.27;;;8.40;55.20;;;;;;10191891;29;20262;-84
2023/03/29 09:43:36;;;;;;;7.73;4.53;;;8.70;58.00;;;;;;10207651;29;20250;-85
2023/03/29 09:48:45;;;;;;;10.67;4.70;;;8.70;43.20;;;;;;10209077;29;20261;-85
2023/03/29 09:53:48;;;;;;;10.03;4.80;;;8.80;43.90;;;;;;10208128;29;20266;-85
2023/03/29 09:59:11;;;;;;;10.97;4.60;;;9.00;44.20;;;;;;10222975;29;20321;-85
2023/03/29 10:04:15;;;;;;;10.50;4.87;;;9.20;46.40;;;;;;10207889;29;20238;-85
2023/03/29 10:09:27;;;;;;;9.60;4.00;;;9.40;52.10;;;;;;10207763;29;20314;-84
2023/03/29 10:14:45;;;;;;;7.93;4.40;;;9.50;54.50;;;;;;10207094;29;20666;-85
2023/03/29 10:19:58;;;;;;;6.00;4.80;;;9.60;37.90;;;;;;10208409;29;20259;-85
2023/03/29 10:25:12;;;;;;;6.53;4.17;;;9.50;38.30;;;;;;10207848;29;20236;-84
2023/03/29 10:30:24;;;;;;;12.57;6.27;;;9.40;38.00;;;;;;10196203;29;20270;-85
2023/03/29 10:35:32;;;;;;;11.23;6.67;;;;;;;;;;10204020;29;20292;-85
2023/03/29 10:40:42;;;;;;;9.90;4.80;;;9.60;44.40;;;;;;10205810;29;20305;-85
2023/03/29 10:45:52;;;;;;;8.23;5.57;;;9.70;37.50;;;;;;10202280;29;20314;-84
2023/03/29 10:51:00;;;;;;;7.70;5.17;;;9.70;36.60;;;;;;10205015;29;20307;-84
2023/03/29 10:56:18;;;;;;;9.60;4.97;;;10.00;40.70;;;;;;10206066;29;20311;-86
2023/03/29 11:01:58;;;;;;;8.87;4.50;;;10.20;35.80;;;;;;10206196;29;20601;-86
2023/03/29 11:07:07;;;;;;;9.07;4.90;;;10.30;35.00;;;;;;10205302;29;20240;-86
2023/03/29 11:12:29;;;;;;;7.97;3.73;;;10.30;34.20;;;;;;10205160;29;20597;-85
2023/03/29 11:18:14;;;;;;;6.80;3.73;;;10.30;35.40;;;;;;10204701;29;20329;-86
2023/03/29 11:23:59;;;;;;;13.70;4.23;;;10.30;38.50;;;;;;10195074;29;20243;-86
2023/03/29 11:29:17;;;;;;;8.53;5.10;;;10.30;32.10;;;;;;10084143;29;20709;-86
2023/03/29 11:34:52;;;;;;;6.00;3.80;;;10.30;34.20;;;;;;10067640;29;20255;-86
2023/03/29 11:40:34;;;;;;;9.33;4.03;;;10.70;36.10;;;;;;10065946;29;20263;-87
2023/03/29 11:45:43;;;;;;;6.47;4.00;;;10.80;36.30;;;;;;10084311;29;20240;-86
2023/03/29 11:51:18;;;;;;;8.13;4.80;;;11.10;34.60;;;;;;10085019;29;20366;-87
2023/03/29 11:56:36;;;;;;;10.77;4.27;;;11.10;32.90;;;;;;10050135;29;20256;-87
2023/03/29 12:02:04;;;;;;;7.20;4.33;;;10.90;31.50;;;;;;10078062;29;20204;-87
2023/03/29 12:07:18;;;;;;;8.97;5.63;;;10.90;33.60;;;;;;10196866;29;20249;-86
2023/03/29 12:12:44;;;;;;;14.37;4.80;;;10.70;30.50;;;;;;10213710;29;20307;-87
2023/03/29 12:18:30;;;;;;;7.73;4.40;;;10.50;32.90;;;;;;10211866;29;20302;-87
2023/03/29 12:23:33;;;;;;;8.63;4.90;;;10.60;33.40;;;;;;10129644;29;20244;-86
2023/03/29 12:29:13;;;;;;;11.80;5.33;;;10.90;33.20;;;;;;10091806;29;20237;-87
2023/03/29 12:34:35;;;;;;;5.97;4.57;;;10.90;33.80;;;;;;10075308;29;20298;-85
2023/03/29 12:40:18;;;;;;;10.53;4.33;;;11.20;33.40;;;;;;10090307;29;20794;-85
2023/03/29 12:45:47;;;;;;;11.17;5.77;;;11.20;31.20;;;;;;10090641;29;20244;-85
2023/03/29 12:50:52;;;;;;;11.87;6.13;;;11.20;32.60;;;;;;10087500;29;20307;-91
2023/03/29 12:56:01;;;;;;;14.70;5.47;;;11.30;32.40;;;;;;10141513;29;20293;-88
2023/03/29 13:01:20;;;;;;;13.63;3.97;;;11.30;33.70;;;;;;10204676;29;20603;-88
2023/03/29 13:06:32;;;;;;;20.03;4.07;;;11.40;32.50;;;;;;10208704;29;20242;-87
2023/03/29 13:11:41;;;;;;;14.27;4.40;;;11.50;35.40;;;;;;10206360;29;20294;-88
2023/03/29 13:16:44;;;;;;;10.73;3.80;;;11.80;36.30;;;;;;10208172;29;20304;-90
2023/03/29 13:21:59;;;;;;;9.30;3.67;;;;;;;;;;10210120;29;20242;-89
2023/03/29 13:27:04;;;;;;;10.03;4.47;;;12.30;38.70;;;;;;10208646;29;20296;-89
2023/03/29 13:32:37;;;;;;;10.47;5.03;;;12.50;31.10;;;;;;10231033;29;20247;-89
2023/03/29 13:37:56;;;;;;;10.13;5.00;;;12.60;30.80;;;;;;10207899;29;20329;-89
2023/03/29 13:43:17;;;;;;;18.40;3.20;;;12.60;28.00;;;;;;10220372;28;20238;-89
2023/03/29 13:48:28;;;;;;;9.17;3.83;;;12.80;34.10;;;;;;10207106;29;20305;-88
2023/03/29 13:53:36;;;;;;;8.27;2.40;;;;;;;;;;10208668;29;20696;-88
2023/03/29 13:58:52;;;;;;;9.77;4.53;;;13.70;40.30;;;;;;10206722;29;20280;-88
2023/03/29 14:03:56;;;;;;;10.40;5.00;;;13.40;27.20;;;;;;10169272;29;20282;-90
2023/03/29 14:09:06;;;;;;;6.87;2.40;;;13.10;26.30;;;;;;10198807;29;20242;-89
2023/03/29 14:14:09;;;;;;;8.33;4.57;;;13.10;38.90;;;;;;10211119;29;20257;-89
2023/03/29 14:19:16;;;;;;;10.20;5.00;;;13.40;34.30;;;;;;10197489;29;20256;-88
2023/03/29 14:24:26;;;;;;;8.00;4.90;;;13.80;35.70;;;;;;10207040;29;20663;-88
2023/03/29 14:29:33;;;;;;;8.00;5.53;;;14.00;28.00;;;;;;10206329;29;20317;-88
2023/03/29 14:34:36;;;;;;;8.07;4.90;;;13.90;27.30;;;;;;10207144;29;20237;-89
2023/03/29 14:39:39;;;;;;;10.63;6.00;;;13.40;26.30;;;;;;10205904;29;20336;-90
2023/03/29 14:44:43;;;;;;;6.30;3.77;;;13.10;27.20;;;;;;10207380;29;20982;-89
2023/03/29 14:49:46;;;;;;;6.23;3.23;;;13.20;33.00;;;;;;10206951;29;20230;-89
2023/03/29 14:54:52;;;;;;;7.20;4.10;;;13.00;32.20;;;;;;10206013;29;20235;-90
2023/03/29 14:59:59;;;;;;;7.53;3.03;;;13.00;29.60;;;;;;10207311;29;20254;-89
2023/03/29 15:05:21;;;;;;;8.63;5.50;;;13.10;34.10;;;;;;10208797;29;20243;-89
2023/03/29 15:10:30;;;;;;;13.17;5.80;;;13.50;30.80;;;;;;10172696;29;20237;-89
2023/03/29 15:15:37;;;;;;;6.80;3.20;;;13.20;27.90;;;;;;10172724;29;20269;-90
2023/03/29 15:20:40;;;;;;;7.43;4.50;;;12.90;32.70;;;;;;10204026;29;20263;-90
2023/03/29 15:25:56;;;;;;;9.43;5.90;;;12.50;31.30;;;;;;10205324;29;20290;-89
2023/03/29 15:31:17;;;;;;;7.90;4.57;;;12.30;31.50;;;;;;10205500;29;20289;-89
2023/03/29 15:36:21;;;;;;;8.87;4.70;;;12.10;31.10;;;;;;10223630;29;20313;-91
2023/03/29 15:41:24;;;;;;;6.43;4.20;;;12.10;35.10;;;;;;10221380;29;20254;-92
2023/03/29 15:46:27;;;;;;;10.83;4.47;;;12.00;35.70;;;;;;10215779;29;20239;-90
2023/03/29 15:51:30;;;;;;;19.33;8.60;;;12.00;39.00;;;;;;10230413;29;20237;-92
2023/03/29 15:56:37;;;;;;;12.20;5.50;;;12.00;36.40;;;;;;10218409;29;20238;-93
2023/03/29 16:01:43;;;;;;;7.33;5.37;;;11.90;38.70;;;;;;10223651;29;20266;-91
2023/03/29 16:06:48;;;;;;;17.07;7.03;;;11.80;37.10;;;;;;10213970;29;20356;-92
2023/03/29 16:11:51;;;;;;;11.17;5.10;;;11.80;40.70;;;;;;10212428;29;20215;-91
2023/03/29 16:16:55;;;;;;;16.97;9.17;;;11.60;39.40;;;;;;10213742;29;20254;-93
2023/03/29 16:22:05;;;;;;;9.67;6.20;;;11.20;36.60;;;;;;10207785;29;20290;-92
2023/03/29 16:27:08;;;;;;;10.30;3.80;;;11.10;43.60;;;;;;10211335;29;21012;-91
2023/03/29 16:32:11;;;;;;;7.03;2.93;;;11.30;46.20;;;;;;10209787;29;20242;-92
2023/03/29 16:37:13;;;;;;;7.13;3.67;;;11.50;43.00;;;;;;10199094;29;20815;-92
2023/03/29 16:42:16;;;;;;;5.23;3.17;;;12.00;57.60;;;;;;10211890;29;20363;-93
2023/03/29 16:47:18;;;;;;;12.83;4.93;;;12.60;60.90;;;;;;10211336;29;20289;-93
2023/03/29 16:52:22;;;;;;;9.57;4.40;;;12.80;46.80;;;;;;10210686;29;20239;-94
2023/03/29 16:57:25;;;;;;;3.47;1.97;;;12.90;51.20;;;;;;10192567;28;20789;-93
2023/03/29 17:02:28;;;;;;;6.17;3.50;;;13.40;64.80;;;;;;10210481;29;20708;-93
2023/03/29 17:07:31;;;;;;;4.77;2.73;;;14.10;52.00;;;;;;10209567;29;20291;-93
2023/03/29 17:12:34;;;;;;;10.63;6.00;;;14.00;49.30;;;;;;10216886;29;20233;-91
2023/03/29 17:17:37;;;;;;;7.23;4.73;;;13.40;35.40;;;;;;10210688;29;20251;-88
2023/03/29 17:22:40;;;;;;;6.93;3.73;;;12.50;40.40;;;;;;10214132;29;20692;-89
2023/03/29 17:27:44;;;;;;;10.70;5.63;;;12.80;58.20;;;;;;10205493;29;20298;-89
2023/03/29 17:32:47;;;;;;;6.50;3.00;;;12.40;46.00;;;;;;10207018;29;20238;-90
2023/03/29 17:37:49;;;;;;;13.97;5.73;;;12.50;61.60;;;;;;10206802;29;20807;-89
2023/03/29 17:42:53;;;;;;;7.00;4.07;;;13.00;52.20;;;;;;10207222;29;20642;-89
2023/03/29 17:47:55;;;;;;;17.00;7.80;;;12.60;50.70;;;;;;10208155;29;20243;-90
2023/03/29 17:52:58;;;;;;;20.27;10.33;;;11.90;48.40;;;;;;10209676;29;20230;-90
2023/03/29 17:58:01;;;;;;;9.70;6.23;;;11.00;44.10;;;;;;10207391;29;20261;-91
2023/03/29 18:03:03;;;;;;;12.80;7.97;;;10.10;57.70;;;;;;10207053;29;20634;-90
2023/03/29 18:08:07;;;;;;;20.70;10.57;;;9.80;56.20;;;;;;10208547;29;20682;-90
2023/03/29 18:13:12;;;;;;;21.23;12.17;;;9.70;56.50;;;;;;10207634;29;20231;-90
2023/03/29 18:18:15;;;;;;;20.73;12.83;;;;;;;;;;10208268;29;20321;-90
2023/03/29 18:23:18;;;;;;;33.63;20.23;;;8.80;60.20;;;;;;10207578;29;20622;-91
2023/03/29 18:28:23;;;;;;;49.57;26.77;;;8.60;62.00;;;;;;10206328;29;20238;-91
2023/03/29 18:33:27;;;;;;;51.07;29.77;;;7.20;91.90;;;;;;10207093;29;20247;-90
2023/03/29 18:38:34;;;;;;;58.13;31.67;;;7.10;92.80;;;;;;9857196;29;10000020;-90
2023/03/29 18:43:38;;;;;;;56.03;32.23;;;;;;;;;;10165421;29;20243;-90
2023/03/29 18:48:41;;;;;;;51.83;27.90;;;6.60;98.00;;;;;;10180371;29;20302;-92
2023/03/29 18:53:44;;;;;;;51.60;29.43;;;6.50;98.70;;;;;;10203000;29;20643;-91
2023/03/29 18:58:47;;;;;;;38.93;22.13;;;6.50;99.30;;;;;;10202632;29;20262;-92
2023/03/29 19:03:50;;;;;;;37.50;20.27;;;6.50;99.90;;;;;;10179277;29;20285;-91
2023/03/29 19:08:54;;;;;;;32.17;19.50;;;6.60;99.90;;;;;;10158500;29;20247;-91
2023/03/29 19:13:56;;;;;;;30.17;17.60;;;6.60;99.90;;;;;;10201001;29;20297;-91
2023/03/29 19:18:59;;;;;;;33.23;20.33;;;6.60;99.90;;;;;;10201174;29;20740;-91
2023/03/29 19:24:03;;;;;;;35.03;19.37;;;6.60;99.70;;;;;;10202999;29;20254;-92
2023/03/29 19:29:07;;;;;;;29.93;18.97;;;6.60;99.90;;;;;;10203059;29;20266;-91
2023/03/29 19:34:10;;;;;;;29.63;18.80;;;6.60;99.90;;;;;;10201730;29;20234;-91
2023/03/29 19:39:12;;;;;;;28.13;17.73;;;6.60;99.90;;;;;;10202254;29;20313;-91
2023/03/29 19:44:15;;;;;;;28.33;18.03;;;6.60;99.90;;;;;;10202112;29;20695;-91
2023/03/29 19:49:18;;;;;;;27.63;18.33;;;6.60;99.90;;;;;;10203589;29;20698;-91
2023/03/29 19:54:20;;;;;;;32.57;20.30;;;6.50;99.90;;;;;;10226379;29;20242;-91
2023/03/29 19:59:24;;;;;;;27.97;17.77;;;6.50;99.90;;;;;;10221392;29;20258;-91
2023/03/29 20:04:27;;;;;;;29.77;17.53;;;6.40;99.90;;;;;;10202756;29;20243;-91
2023/03/29 20:09:31;;;;;;;28.57;15.03;;;6.50;99.90;;;;;;10203932;29;20301;-92
2023/03/29 20:14:36;;;;;;;15.97;8.13;;;6.50;99.90;;;;;;10202466;29;20242;-93
2023/03/29 20:19:42;;;;;;;10.60;6.60;;;6.90;99.90;;;;;;10200217;29;20266;-93
2023/03/29 20:24:45;;;;;;;15.20;9.47;;;7.30;99.90;;;;;;10211242;29;20243;-93
2023/03/29 20:29:47;;;;;;;16.23;10.90;;;8.00;99.90;;;;;;10211460;29;20293;-92
2023/03/29 20:34:50;;;;;;;9.50;6.70;;;8.60;99.90;;;;;;10210836;29;20227;-91
2023/03/29 20:39:55;;;;;;;10.73;4.97;;;9.10;99.90;;;;;;10210041;29;20274;-95
2023/03/29 20:44:59;;;;;;;17.83;10.00;;;9.70;99.90;;;;;;10210036;29;20673;-94
2023/03/29 20:50:02;;;;;;;15.73;11.43;;;10.20;96.30;;;;;;10210976;29;20289;-90
2023/03/29 20:55:06;;;;;;;21.23;11.50;;;9.70;91.10;;;;;;10205225;29;20305;-90
2023/03/29 21:00:10;;;;;;;23.73;13.60;;;8.20;95.20;;;;;;10210657;29;20258;-91
2023/03/29 21:05:14;;;;;;;28.17;15.57;;;;;;;;;;10172794;29;20243;-91
2023/03/29 21:10:16;;;;;;;28.33;15.67;;;7.30;99.10;;;;;;10172990;29;20626;-90
2023/03/29 21:15:19;;;;;;;24.97;16.40;;;7.10;99.90;;;;;;10208283;29;20245;-90
2023/03/29 21:20:23;;;;;;;23.40;15.93;;;6.90;99.90;;;;;;10211286;29;20265;-90
2023/03/29 21:25:25;;;;;;;23.37;13.00;;;6.80;99.90;;;;;;10211481;29;20287;-91
2023/03/29 21:30:28;;;;;;;25.20;11.10;;;6.80;99.90;;;;;;10210218;29;20244;-90
2023/03/29 21:35:34;;;;;;;20.60;9.97;;;6.90;99.90;;;;;;10204508;29;20718;-90
2023/03/29 21:40:37;;;;;;;20.83;12.70;;;7.40;99.90;;;;;;10210996;29;20273;-90
2023/03/29 21:45:39;;;;;;;16.77;9.13;;;7.80;99.90;;;;;;10207738;29;20237;-91
2023/03/29 21:50:42;;;;;;;14.83;9.97;;;8.20;99.90;;;;;;10193478;29;20266;-90
2023/03/29 21:55:47;;;;;;;15.70;7.97;;;8.50;99.90;;;;;;10216348;29;20257;-90
2023/03/29 22:00:50;;;;;;;22.80;12.83;;;8.80;99.90;;;;;;10216589;28;20674;-91
2023/03/29 22:06:01;;;;;;;22.97;13.00;;;9.00;99.90;;;;;;10205762;29;20234;-91
2023/03/29 22:11:13;;;;;;;19.73;10.80;;;9.10;99.90;;;;;;10211367;29;20285;-91
2023/03/29 22:16:17;;;;;;;21.50;14.17;;;8.90;99.90;;;;;;10207154;29;20306;-91
2023/03/29 22:21:27;;;;;;;21.03;12.47;;;8.70;99.20;;;;;;10209615;29;20258;-91
2023/03/29 22:26:31;;;;;;;22.30;13.90;;;8.50;99.40;;;;;;10209925;29;20290;-90
2023/03/29 22:31:34;;;;;;;21.30;13.83;;;8.40;98.10;;;;;;10211382;29;20285;-90
2023/03/29 22:36:37;;;;;;;23.67;13.47;;;8.30;98.10;;;;;;10210543;29;20266;-91
2023/03/29 22:41:40;;;;;;;27.13;15.00;;;8.20;99.10;;;;;;10209287;29;20274;-90
2023/03/29 22:46:43;;;;;;;31.90;17.03;;;8.10;98.50;;;;;;10206286;29;20242;-90
2023/03/29 22:51:46;;;;;;;35.37;18.13;;;8.00;98.60;;;;;;10201419;29;20242;-91
2023/03/29 22:56:49;;;;;;;31.07;16.10;;;7.90;99.10;;;;;;10207619;29;20242;-91
2023/03/29 23:01:52;;;;;;;25.20;14.70;;;7.70;99.30;;;;;;10205859;29;20258;-91
2023/03/29 23:06:55;;;;;;;21.70;13.03;;;7.70;99.50;;;;;;10205740;29;20218;-91
2023/03/29 23:11:58;;;;;;;19.83;11.47;;;7.60;99.90;;;;;;10206815;29;20686;-91
2023/03/29 23:17:01;;;;;;;12.63;9.93;;;7.50;99.90;;;;;;10206149;29;20268;-91
2023/03/29 23:22:03;;;;;;;16.20;11.20;;;7.50;99.90;;;;;;10206544;29;20258;-91
2023/03/29 23:27:06;;;;;;;18.87;10.57;;;7.50;99.90;;;;;;10206328;29;20235;-91
2023/03/29 23:32:09;;;;;;;17.73;12.00;;;7.50;99.90;;;;;;10206186;29;20996;-91
2023/03/29 23:37:11;;;;;;;19.03;11.27;;;7.30;99.90;;;;;;10205632;29;20274;-91
2023/03/29 23:42:14;;;;;;;16.37;10.37;;;7.30;99.90;;;;;;10206704;29;20258;-91
2023/03/29 23:47:16;;;;;;;15.17;10.33;;;7.10;99.90;;;;;;10206732;29;20242;-90
2023/03/29 23:52:19;;;;;;;16.40;11.40;;;7.20;99.90;;;;;;10205735;29;20238;-91
2023/03/29 23:57:21;;;;;;;17.07;11.07;;;7.10;99.90;;;;;;10207829;29;20233;-91
